createdAt,value
2023-05-22T00:00:37.371Z,19.30
2023-05-22T00:03:05.047Z,19.20
2023-05-22T00:05:34.592Z,19.30
2023-05-22T00:08:01.778Z,19.30
2023-05-22T00:10:28.800Z,19.20
2023-05-22T00:12:55.885Z,19.30
2023-05-22T00:15:22.973Z,19.20
2023-05-22T00:17:50.181Z,19.20
2023-05-22T00:20:17.332Z,19.20
2023-05-22T00:22:45.100Z,19.20
2023-05-22T00:25:12.070Z,19.20
2023-05-22T00:27:39.203Z,19.20
2023-05-22T00:30:07.581Z,19.20
2023-05-22T00:32:34.708Z,19.20
2023-05-22T00:35:01.835Z,19.20
2023-05-22T00:37:29.593Z,19.20
2023-05-22T00:39:57.289Z,19.20
2023-05-22T00:42:24.888Z,19.20
2023-05-22T00:44:51.969Z,19.20
2023-05-22T00:47:19.076Z,19.20
2023-05-22T00:49:46.256Z,19.20
2023-05-22T00:52:14.667Z,19.20
2023-05-22T00:54:42.157Z,19.20
2023-05-22T00:57:09.387Z,19.20
2023-05-22T00:59:36.720Z,19.20
2023-05-22T01:02:04.124Z,19.20
2023-05-22T01:04:32.890Z,19.20
2023-05-22T01:07:03.243Z,19.20
2023-05-22T01:09:30.493Z,19.10
2023-05-22T01:12:12.680Z,19.20
2023-05-22T01:14:42.554Z,19.10
2023-05-22T01:17:28.964Z,19.10
2023-05-22T01:20:07.727Z,19.10
2023-05-22T01:22:43.451Z,19.10
2023-05-22T01:25:17.148Z,19.10
2023-05-22T01:27:44.401Z,19.10
2023-05-22T01:30:17.732Z,19.10
2023-05-22T01:32:46.700Z,19.10
2023-05-22T01:35:17.724Z,19.10
2023-05-22T01:37:45.891Z,19.10
2023-05-22T01:40:13.863Z,19.10
2023-05-22T01:42:41.435Z,19.10
2023-05-22T01:45:09.649Z,19.00
2023-05-22T01:47:37.294Z,19.00
2023-05-22T01:50:05.900Z,19.00
2023-05-22T01:52:52.561Z,19.00
2023-05-22T01:55:27.606Z,19.00
2023-05-22T01:57:59.638Z,19.10
2023-05-22T02:00:27.830Z,19.10
2023-05-22T02:03:00.376Z,19.10
2023-05-22T02:05:29.637Z,19.10
2023-05-22T02:08:00.186Z,19.10
2023-05-22T02:10:28.222Z,19.10
2023-05-22T02:12:55.563Z,19.00
2023-05-22T02:15:23.482Z,19.00
2023-05-22T02:17:53.307Z,19.00
2023-05-22T02:20:20.813Z,19.00
2023-05-22T02:22:48.033Z,19.00
2023-05-22T02:25:17.240Z,18.90
2023-05-22T02:27:46.578Z,18.90
2023-05-22T02:30:14.371Z,18.90
2023-05-22T02:32:42.409Z,18.90
2023-05-22T02:35:09.765Z,18.90
2023-05-22T02:37:37.206Z,18.90
2023-05-22T02:40:07.441Z,18.90
2023-05-22T02:42:34.875Z,18.90
2023-05-22T02:45:03.059Z,18.80
2023-05-22T02:47:30.669Z,18.80
2023-05-22T02:50:00.714Z,18.80
2023-05-22T02:52:28.463Z,18.80
2023-05-22T02:54:55.631Z,18.80
2023-05-22T02:57:23.617Z,18.80
2023-05-22T02:59:51.208Z,18.80
2023-05-22T03:02:21.311Z,18.80
2023-05-22T03:04:48.569Z,18.80
2023-05-22T03:07:15.680Z,18.80
2023-05-22T03:09:42.713Z,18.80
2023-05-22T03:12:10.043Z,18.80
2023-05-22T03:14:37.078Z,18.80
2023-05-22T03:17:06.909Z,18.80
2023-05-22T03:19:36.031Z,18.70
2023-05-22T03:22:03.992Z,18.70
2023-05-22T03:24:32.377Z,18.70
2023-05-22T03:27:00.669Z,18.70
2023-05-22T03:29:36.569Z,18.70
2023-05-22T03:32:04.260Z,18.70
2023-05-22T03:34:32.332Z,18.70
2023-05-22T03:37:00.637Z,18.70
2023-05-22T03:39:27.703Z,18.70
2023-05-22T03:41:59.768Z,18.70
2023-05-22T03:44:27.486Z,18.60
2023-05-22T03:46:55.270Z,18.70
2023-05-22T03:49:22.283Z,18.70
2023-05-22T03:51:49.320Z,18.70
2023-05-22T03:54:16.399Z,18.70
2023-05-22T03:56:43.605Z,18.70
2023-05-22T03:59:10.873Z,18.70
2023-05-22T04:01:39.661Z,18.80
2023-05-22T04:04:06.787Z,18.70
2023-05-22T04:06:34.289Z,18.70
2023-05-22T04:09:01.406Z,18.80
2023-05-22T04:11:30.622Z,18.80
2023-05-22T04:14:03.008Z,18.80
2023-05-22T04:16:30.116Z,18.80
2023-05-22T04:18:57.982Z,18.80
2023-05-22T04:21:25.107Z,18.80
2023-05-22T04:23:52.147Z,18.90
2023-05-22T04:26:20.905Z,18.90
2023-05-22T04:28:47.981Z,18.90
2023-05-22T04:31:15.109Z,18.90
2023-05-22T04:33:42.163Z,19.00
2023-05-22T04:36:12.292Z,19.00
2023-05-22T04:38:41.537Z,19.00
2023-05-22T04:41:12.796Z,19.10
2023-05-22T04:43:40.238Z,19.10
2023-05-22T04:46:08.799Z,19.10
2023-05-22T04:48:36.965Z,19.20
2023-05-22T04:51:06.401Z,19.20
2023-05-22T04:53:33.730Z,19.20
2023-05-22T04:56:01.004Z,19.20
2023-05-22T04:58:29.621Z,19.20
2023-05-22T05:00:58.089Z,19.30
2023-05-22T05:03:28.658Z,19.30
2023-05-22T05:05:56.897Z,19.30
2023-05-22T05:08:24.287Z,19.30
2023-05-22T05:10:51.454Z,19.40
2023-05-22T05:13:18.664Z,19.30
2023-05-22T05:15:46.204Z,19.30
2023-05-22T05:18:13.473Z,19.30
2023-05-22T05:20:42.719Z,19.30
2023-05-22T05:23:10.488Z,19.30
2023-05-22T05:25:40.924Z,19.30
2023-05-22T05:28:11.853Z,19.30
2023-05-22T05:30:41.541Z,19.30
2023-05-22T05:33:19.786Z,19.30
2023-05-22T05:36:13.037Z,19.30
2023-05-22T05:38:41.048Z,19.30
2023-05-22T05:41:08.320Z,19.30
2023-05-22T05:43:36.264Z,19.20
2023-05-22T05:46:07.742Z,19.20
2023-05-22T05:48:35.591Z,19.20
2023-05-22T05:51:02.768Z,19.20
2023-05-22T05:53:34.703Z,19.10
2023-05-22T05:56:01.938Z,19.10
2023-05-22T05:58:31.698Z,19.10
2023-05-22T06:01:19.975Z,19.10
2023-05-22T06:03:47.616Z,19.10
2023-05-22T06:06:21.843Z,19.10
2023-05-22T06:09:07.500Z,19.10
2023-05-22T06:11:47.686Z,19.10
2023-05-22T06:14:14.873Z,19.10
2023-05-22T06:16:42.093Z,19.10
2023-05-22T06:19:09.563Z,19.20
2023-05-22T06:21:36.861Z,19.20
2023-05-22T06:24:04.469Z,19.20
2023-05-22T06:26:31.758Z,19.20
2023-05-22T06:28:58.979Z,19.30
2023-05-22T06:31:26.180Z,19.30
2023-05-22T06:33:56.477Z,19.30
2023-05-22T06:36:25.010Z,19.30
2023-05-22T06:38:54.727Z,19.30
2023-05-22T06:41:40.194Z,19.30
2023-05-22T06:44:10.545Z,19.30
2023-05-22T06:46:39.553Z,19.20
2023-05-22T06:49:07.003Z,19.20
2023-05-22T06:51:43.972Z,19.10
2023-05-22T06:54:14.071Z,19.10
2023-05-22T06:56:45.248Z,19.00
2023-05-22T06:59:17.630Z,19.00
2023-05-22T07:02:03.337Z,18.90
2023-05-22T07:04:44.490Z,18.90
2023-05-22T07:07:16.371Z,18.80
2023-05-22T07:09:43.451Z,18.80
2023-05-22T07:12:10.632Z,18.70
2023-05-22T07:14:37.769Z,18.70
2023-05-22T07:17:05.281Z,18.70
2023-05-22T07:19:37.930Z,18.70
2023-05-22T07:22:05.303Z,18.60
2023-05-22T07:24:34.733Z,18.60
2023-05-22T07:27:04.532Z,18.60
2023-05-22T07:29:32.864Z,18.60
2023-05-22T07:32:01.492Z,18.60
2023-05-22T07:34:33.284Z,18.60
2023-05-22T07:37:06.891Z,18.60
2023-05-22T07:39:34.380Z,18.60
2023-05-22T07:42:02.060Z,18.60
2023-05-22T07:44:31.535Z,18.60
2023-05-22T07:46:59.650Z,18.70
2023-05-22T07:49:28.956Z,18.60
2023-05-22T07:51:56.093Z,18.70
2023-05-22T07:54:25.872Z,18.70
2023-05-22T07:56:53.116Z,18.60
2023-05-22T07:59:22.143Z,18.70
2023-05-22T08:01:50.699Z,18.60
2023-05-22T08:04:18.158Z,18.60
2023-05-22T08:06:45.542Z,18.60
2023-05-22T08:09:13.573Z,18.60
2023-05-22T08:11:42.305Z,18.60
2023-05-22T08:14:09.476Z,18.60
2023-05-22T08:16:36.590Z,18.60
2023-05-22T08:19:04.241Z,18.60
2023-05-22T08:21:34.664Z,18.60
2023-05-22T08:24:02.140Z,18.50
2023-05-22T08:26:30.113Z,18.50
2023-05-22T08:29:00.074Z,18.50
2023-05-22T08:31:29.539Z,18.50
2023-05-22T08:34:02.636Z,18.60
2023-05-22T08:36:34.334Z,18.60
2023-05-22T08:39:02.021Z,18.60
2023-05-22T08:41:29.956Z,18.60
2023-05-22T08:43:57.387Z,18.60
2023-05-22T08:46:28.414Z,18.60
2023-05-22T08:48:59.526Z,18.60
2023-05-22T08:51:31.763Z,18.60
2023-05-22T08:53:59.059Z,18.70
2023-05-22T08:56:28.649Z,18.70
2023-05-22T08:58:57.621Z,18.70
2023-05-22T09:01:25.023Z,18.70
2023-05-22T09:03:52.175Z,18.80
2023-05-22T09:06:19.263Z,18.80
2023-05-22T09:08:46.456Z,18.80
2023-05-22T09:11:13.561Z,18.80
2023-05-22T09:13:41.571Z,18.80
2023-05-22T09:16:12.363Z,18.80
2023-05-22T09:18:40.099Z,18.80
2023-05-22T09:21:17.760Z,18.80
2023-05-22T09:23:54.767Z,18.80
2023-05-22T09:26:22.535Z,18.70
2023-05-22T09:28:49.648Z,18.70
2023-05-22T09:31:16.797Z,18.70
2023-05-22T09:33:44.285Z,18.70
2023-05-22T09:36:11.872Z,18.70
2023-05-22T09:38:39.337Z,18.80
2023-05-22T09:41:06.375Z,18.80
2023-05-22T09:43:33.594Z,18.80
2023-05-22T09:46:02.073Z,18.80
2023-05-22T09:48:29.419Z,18.80
2023-05-22T09:50:57.321Z,18.90
2023-05-22T09:53:27.475Z,18.90
2023-05-22T09:55:56.154Z,19.00
2023-05-22T09:58:24.722Z,19.00
2023-05-22T10:00:52.537Z,19.10
2023-05-22T10:03:22.937Z,19.20
2023-05-22T10:05:54.281Z,19.30
2023-05-22T10:08:23.506Z,19.30
2023-05-22T10:10:52.832Z,19.40
2023-05-22T10:13:21.091Z,19.60
2023-05-22T10:15:49.520Z,19.70
2023-05-22T10:18:17.577Z,19.80
2023-05-22T10:20:47.152Z,19.90
2023-05-22T10:23:15.381Z,20.10
2023-05-22T10:25:43.154Z,20.20
2023-05-22T10:28:10.919Z,20.40
2023-05-22T10:30:45.515Z,20.50
2023-05-22T10:33:38.402Z,20.60
2023-05-22T10:36:08.817Z,20.70
2023-05-22T10:38:44.989Z,20.80
2023-05-22T10:41:12.312Z,20.80
2023-05-22T10:43:44.851Z,20.90
2023-05-22T10:46:12.718Z,21.00
2023-05-22T10:48:40.587Z,21.10
2023-05-22T10:51:08.246Z,21.10
2023-05-22T10:53:36.091Z,21.20
2023-05-22T10:56:13.793Z,21.30
2023-05-22T10:58:42.728Z,21.40
2023-05-22T11:01:14.279Z,21.40
2023-05-22T11:04:00.282Z,21.50
2023-05-22T11:06:46.313Z,21.60
2023-05-22T11:09:21.840Z,21.70
2023-05-22T11:12:08.861Z,21.70
2023-05-22T11:14:36.699Z,21.80
2023-05-22T11:17:05.386Z,21.90
2023-05-22T11:19:32.596Z,21.90
2023-05-22T11:22:03.888Z,22.00
2023-05-22T11:24:37.031Z,22.10
2023-05-22T11:27:07.912Z,22.10
2023-05-22T11:29:35.854Z,22.20
2023-05-22T11:32:03.271Z,22.30
2023-05-22T11:34:55.297Z,22.40
2023-05-22T11:37:22.764Z,22.60
2023-05-22T11:39:51.353Z,22.70
2023-05-22T11:42:18.813Z,22.80
2023-05-22T11:44:45.860Z,23.00
2023-05-22T11:47:12.954Z,23.10
2023-05-22T11:49:43.407Z,23.20
2023-05-22T11:52:10.833Z,23.30
2023-05-22T11:54:38.840Z,23.40
2023-05-22T11:57:09.639Z,23.60
2023-05-22T11:59:36.812Z,23.70
2023-05-22T12:02:04.020Z,23.90
2023-05-22T12:04:32.622Z,24.00
2023-05-22T12:06:59.849Z,24.00
2023-05-22T12:09:29.622Z,24.10
2023-05-22T12:11:59.919Z,24.10
2023-05-22T12:14:27.921Z,24.20
2023-05-22T12:16:55.355Z,24.10
2023-05-22T12:19:22.527Z,24.00
2023-05-22T12:21:50.042Z,24.00
2023-05-22T12:24:21.680Z,23.90
2023-05-22T12:26:52.221Z,23.80
2023-05-22T12:29:19.966Z,23.70
2023-05-22T12:31:46.989Z,23.60
2023-05-22T12:34:16.214Z,23.40
2023-05-22T12:36:43.853Z,23.30
2023-05-22T12:39:20.210Z,23.20
2023-05-22T12:41:47.220Z,23.00
2023-05-22T12:44:15.593Z,23.00
2023-05-22T12:46:42.938Z,22.90
2023-05-22T12:49:10.706Z,22.80
2023-05-22T12:51:37.849Z,22.70
2023-05-22T12:54:04.931Z,22.60
2023-05-22T12:56:32.288Z,22.50
2023-05-22T12:58:59.701Z,22.50
2023-05-22T13:01:26.999Z,22.40
2023-05-22T13:03:54.207Z,22.40
2023-05-22T13:06:21.288Z,22.30
2023-05-22T13:08:48.406Z,22.30
2023-05-22T13:11:15.652Z,22.30
2023-05-22T13:13:42.821Z,22.30
2023-05-22T13:16:10.826Z,22.20
2023-05-22T13:18:37.911Z,22.30
2023-05-22T13:21:05.168Z,22.30
2023-05-22T13:23:32.254Z,22.30
2023-05-22T13:26:02.028Z,22.30
2023-05-22T13:28:29.296Z,22.30
2023-05-22T13:30:56.675Z,22.40
2023-05-22T13:33:23.773Z,22.50
2023-05-22T13:35:50.913Z,22.50
2023-05-22T13:38:18.021Z,22.50
2023-05-22T13:40:46.941Z,22.50
2023-05-22T13:43:15.549Z,22.60
2023-05-22T13:45:42.689Z,22.60
2023-05-22T13:48:10.053Z,22.60
2023-05-22T13:50:37.131Z,22.60
2023-05-22T13:53:04.125Z,22.60
2023-05-22T13:55:31.122Z,22.70
2023-05-22T13:57:58.213Z,22.70
2023-05-22T14:00:25.210Z,22.70
2023-05-22T14:02:52.281Z,22.70
2023-05-22T14:05:19.568Z,22.70
2023-05-22T14:07:46.717Z,22.70
2023-05-22T14:10:13.893Z,22.70
2023-05-22T14:12:40.983Z,22.60
2023-05-22T14:15:08.452Z,22.60
2023-05-22T14:17:35.691Z,22.50
2023-05-22T14:20:02.723Z,22.30
2023-05-22T14:22:30.638Z,22.20
2023-05-22T14:24:59.744Z,22.10
2023-05-22T14:27:26.905Z,22.00
2023-05-22T14:29:53.899Z,21.90
2023-05-22T14:32:21.718Z,21.80
2023-05-22T14:34:48.814Z,21.80
2023-05-22T14:37:15.997Z,21.80
2023-05-22T14:39:42.984Z,21.80
2023-05-22T14:42:10.052Z,21.80
2023-05-22T14:44:37.061Z,21.80
2023-05-22T14:47:04.166Z,21.70
2023-05-22T14:49:31.210Z,21.60
2023-05-22T14:51:58.197Z,21.60
2023-05-22T14:54:25.280Z,21.50
2023-05-22T14:56:52.456Z,21.50
2023-05-22T14:59:19.546Z,21.50
2023-05-22T15:01:50.229Z,21.60
2023-05-22T15:04:17.938Z,21.70
2023-05-22T15:06:45.267Z,21.80
2023-05-22T15:09:12.292Z,21.90
2023-05-22T15:11:39.467Z,22.00
2023-05-22T15:14:06.578Z,22.10
2023-05-22T15:16:33.718Z,22.20
2023-05-22T15:19:00.919Z,22.30
2023-05-22T15:21:28.165Z,22.30
2023-05-22T15:23:55.289Z,22.40
2023-05-22T15:26:22.449Z,22.40
2023-05-22T15:28:49.536Z,22.40
2023-05-22T15:31:16.621Z,22.50
2023-05-22T15:33:43.880Z,22.50
2023-05-22T15:36:10.977Z,22.50
2023-05-22T15:38:38.043Z,22.60
2023-05-22T15:41:05.186Z,22.60
2023-05-22T15:43:32.304Z,22.60
2023-05-22T15:46:00.017Z,22.60
2023-05-22T15:48:27.384Z,22.60
2023-05-22T15:50:54.411Z,22.60
2023-05-22T15:53:22.173Z,22.60
2023-05-22T15:55:49.805Z,22.60
2023-05-22T15:58:16.994Z,22.60
2023-05-22T16:00:44.537Z,22.60
2023-05-22T16:03:11.785Z,22.70
2023-05-22T16:05:39.773Z,22.70
2023-05-22T16:08:07.381Z,22.70
2023-05-22T16:10:34.704Z,22.60
2023-05-22T16:13:05.220Z,22.60
2023-05-22T16:15:32.453Z,22.60
2023-05-22T16:18:00.134Z,22.60
2023-05-22T16:20:27.217Z,22.50
2023-05-22T16:22:54.835Z,22.40
2023-05-22T16:25:22.081Z,22.40
2023-05-22T16:27:49.135Z,22.40
2023-05-22T16:30:18.935Z,22.30
2023-05-22T16:32:46.717Z,22.20
2023-05-22T16:35:14.495Z,22.20
2023-05-22T16:37:41.544Z,22.20
2023-05-22T16:40:11.776Z,22.10
2023-05-22T16:42:38.817Z,22.00
2023-05-22T16:45:06.436Z,22.00
2023-05-22T16:47:33.603Z,21.90
2023-05-22T16:50:00.796Z,21.80
2023-05-22T16:52:28.133Z,21.70
2023-05-22T16:54:55.474Z,21.60
2023-05-22T16:57:22.745Z,21.50
2023-05-22T16:59:49.895Z,21.40
2023-05-22T17:02:17.009Z,21.30
2023-05-22T17:04:44.072Z,21.20
2023-05-22T17:07:11.166Z,21.10
2023-05-22T17:09:38.355Z,21.00
2023-05-22T17:12:05.632Z,20.80
2023-05-22T17:14:34.463Z,20.80
2023-05-22T17:17:01.577Z,20.70
2023-05-22T17:19:28.629Z,20.60
2023-05-22T17:21:56.797Z,20.60
2023-05-22T17:24:23.826Z,20.60
2023-05-22T17:26:50.983Z,20.50
2023-05-22T17:29:18.059Z,20.50
2023-05-22T17:31:45.023Z,20.40
2023-05-22T17:34:12.084Z,20.40
2023-05-22T17:36:39.092Z,20.40
2023-05-22T17:39:06.204Z,20.40
2023-05-22T17:41:33.297Z,20.30
2023-05-22T17:44:03.499Z,20.20
2023-05-22T17:46:30.771Z,20.20
2023-05-22T17:48:58.080Z,20.10
2023-05-22T17:51:25.110Z,20.10
2023-05-22T17:53:56.158Z,20.00
2023-05-22T17:56:23.716Z,19.90
2023-05-22T17:58:51.041Z,19.80
2023-05-22T18:01:18.538Z,19.80
2023-05-22T18:03:46.866Z,19.70
2023-05-22T18:06:14.199Z,19.60
2023-05-22T18:08:41.377Z,19.50
2023-05-22T18:11:08.388Z,19.50
2023-05-22T18:13:35.503Z,19.40
2023-05-22T18:16:03.669Z,19.30
2023-05-22T18:18:33.382Z,19.30
2023-05-22T18:21:02.005Z,19.20
2023-05-22T18:23:29.058Z,19.20
2023-05-22T18:25:57.382Z,19.10
2023-05-22T18:28:26.665Z,19.10
2023-05-22T18:30:54.314Z,19.00
2023-05-22T18:33:22.911Z,19.00
2023-05-22T18:35:49.944Z,18.90
2023-05-22T18:38:17.661Z,18.80
2023-05-22T18:40:45.123Z,18.70
2023-05-22T18:43:12.542Z,18.60
2023-05-22T18:45:39.550Z,18.60
2023-05-22T18:48:06.724Z,18.50
2023-05-22T18:50:34.034Z,18.40
2023-05-22T18:53:01.125Z,18.40
2023-05-22T18:55:28.438Z,18.30
2023-05-22T18:57:55.703Z,18.30
2023-05-22T19:00:23.460Z,18.20
2023-05-22T19:02:51.115Z,18.20
2023-05-22T19:05:18.233Z,18.10
2023-05-22T19:07:45.458Z,18.10
2023-05-22T19:10:12.464Z,18.00
2023-05-22T19:12:39.584Z,18.00
2023-05-22T19:15:07.085Z,18.00
2023-05-22T19:17:34.305Z,17.90
2023-05-22T19:20:03.454Z,17.90
2023-05-22T19:22:30.559Z,17.80
2023-05-22T19:24:57.765Z,17.80
2023-05-22T19:27:25.438Z,17.80
2023-05-22T19:29:52.532Z,17.70
2023-05-22T19:32:19.676Z,17.70
2023-05-22T19:34:46.789Z,17.60
2023-05-22T19:37:13.933Z,17.50
2023-05-22T19:39:42.293Z,17.50
2023-05-22T19:42:10.837Z,17.50
2023-05-22T19:44:38.138Z,17.50
2023-05-22T19:47:07.517Z,17.50
2023-05-22T19:49:37.159Z,17.40
2023-05-22T19:52:06.026Z,17.40
2023-05-22T19:54:34.336Z,17.40
2023-05-22T19:57:02.235Z,17.40
2023-05-22T19:59:29.203Z,17.40
2023-05-22T20:01:56.419Z,17.40
2023-05-22T20:04:23.609Z,17.30
2023-05-22T20:06:50.957Z,17.30
2023-05-22T20:09:18.195Z,17.30
2023-05-22T20:11:45.502Z,17.30
2023-05-22T20:14:12.917Z,17.20
2023-05-22T20:16:40.062Z,17.20
2023-05-22T20:19:07.279Z,17.10
2023-05-22T20:21:34.608Z,17.10
2023-05-22T20:24:04.993Z,17.10
2023-05-22T20:26:32.046Z,17.10
2023-05-22T20:28:59.113Z,17.00
2023-05-22T20:31:26.556Z,17.00
2023-05-22T20:33:53.663Z,17.00
2023-05-22T20:36:20.711Z,17.00
2023-05-22T20:38:48.537Z,17.00
2023-05-22T20:41:15.869Z,17.00
2023-05-22T20:43:43.502Z,16.90
2023-05-22T20:46:10.778Z,16.90
2023-05-22T20:48:38.201Z,16.90
2023-05-22T20:51:05.957Z,16.90
2023-05-22T20:53:33.012Z,16.90
2023-05-22T20:56:00.119Z,16.90
2023-05-22T20:58:27.497Z,16.90
2023-05-22T21:00:54.603Z,16.90
2023-05-22T21:03:23.439Z,16.90
2023-05-22T21:05:51.951Z,16.90
2023-05-22T21:08:19.012Z,16.80
2023-05-22T21:10:46.116Z,16.80
2023-05-22T21:13:13.184Z,16.80
2023-05-22T21:15:40.351Z,16.70
2023-05-22T21:18:07.647Z,16.70
2023-05-22T21:20:34.880Z,16.70
2023-05-22T21:23:01.894Z,16.70
2023-05-22T21:25:28.951Z,16.70
2023-05-22T21:27:56.116Z,16.70
2023-05-22T21:30:23.228Z,16.60
2023-05-22T21:32:50.403Z,16.60
2023-05-22T21:35:17.416Z,16.60
2023-05-22T21:37:44.698Z,16.60
2023-05-22T21:40:11.942Z,16.60
2023-05-22T21:42:47.104Z,16.60
2023-05-22T21:45:14.673Z,16.60
2023-05-22T21:47:41.861Z,16.60
2023-05-22T21:50:11.577Z,16.50
2023-05-22T21:52:39.236Z,16.60
2023-05-22T21:55:07.600Z,16.50
2023-05-22T21:57:34.689Z,16.50
2023-05-22T22:00:01.758Z,16.50
2023-05-22T22:02:30.671Z,16.50
2023-05-22T22:04:57.684Z,16.60
2023-05-22T22:07:25.669Z,16.60
2023-05-22T22:09:52.717Z,16.60
2023-05-22T22:12:19.813Z,16.50
2023-05-22T22:14:46.852Z,16.50
2023-05-22T22:17:16.885Z,16.60
2023-05-22T22:19:44.563Z,16.50
2023-05-22T22:22:12.665Z,16.50
2023-05-22T22:24:39.947Z,16.50
2023-05-22T22:27:07.316Z,16.50
2023-05-22T22:29:34.352Z,16.50
2023-05-22T22:32:01.539Z,16.50
2023-05-22T22:34:28.663Z,16.50
2023-05-22T22:36:55.793Z,16.50
2023-05-22T22:39:22.848Z,16.50
2023-05-22T22:41:49.863Z,16.50
2023-05-22T22:44:16.886Z,16.50
2023-05-22T22:46:44.189Z,16.50
2023-05-22T22:49:11.403Z,16.50
2023-05-22T22:51:38.409Z,16.50
2023-05-22T22:54:05.601Z,16.50
2023-05-22T22:56:33.305Z,16.50
2023-05-22T22:59:00.540Z,16.50
2023-05-22T23:01:27.746Z,16.50
2023-05-22T23:03:54.946Z,16.50
2023-05-22T23:06:23.928Z,16.50
2023-05-22T23:08:51.036Z,16.50
2023-05-22T23:11:18.074Z,16.50
2023-05-22T23:13:45.122Z,16.50
2023-05-22T23:16:12.264Z,16.50
2023-05-22T23:18:39.443Z,16.50
2023-05-22T23:21:06.670Z,16.50
2023-05-22T23:23:33.753Z,16.50
2023-05-22T23:26:00.777Z,16.40
2023-05-22T23:28:27.994Z,16.40
2023-05-22T23:30:55.105Z,16.40
2023-05-22T23:33:22.199Z,16.40
2023-05-22T23:35:49.314Z,16.40
2023-05-22T23:38:16.433Z,16.40
2023-05-22T23:40:43.517Z,16.40
2023-05-22T23:43:10.671Z,16.40
2023-05-22T23:45:37.771Z,16.40
2023-05-22T23:48:05.543Z,16.40
2023-05-22T23:50:32.589Z,16.40
2023-05-22T23:52:59.599Z,16.40
2023-05-22T23:55:26.685Z,16.40
2023-05-22T23:57:53.789Z,16.40
